Time;durP1;ratioP1;P1;durP2;ratioP2;P2;SDS_P1;SDS_P2;PMS_P1;PMS_P2;Temp;Humidity;BMP_temperature;BMP_pressure;BME280_temperature;BME280_humidity;BME280_pressure;Samples;Min_cycle;Max_cycle;Signal;HPM_P1;HPM_P2
2022/10/06 00:00:54;;;;;;;3.40;1.90;;;;;;;13.94;100.00;101277.09;10338560;28;20038;-71
2022/10/06 00:06:02;;;;;;;2.63;1.50;;;;;;;14.18;100.00;101334.16;10337538;28;20082;-70
2022/10/06 00:11:04;;;;;;;2.10;1.02;;;;;;;13.98;100.00;101298.97;10336514;28;20066;-70
2022/10/06 00:16:10;;;;;;;2.10;1.08;;;;;;;13.98;100.00;101304.28;10337927;28;20441;-71
2022/10/06 00:21:11;;;;;;;2.78;1.20;;;;;;;13.85;100.00;101292.28;10337136;28;20038;-71
2022/10/06 00:26:15;;;;;;;2.20;1.20;;;;;;;13.96;100.00;101308.97;10336534;28;20476;-70
2022/10/06 00:31:18;;;;;;;4.20;1.58;;;;;;;13.95;100.00;101318.81;10337304;28;20518;-70
2022/10/06 00:36:19;;;;;;;2.65;1.40;;;;;;;13.92;100.00;101297.78;10337636;28;20133;-70
2022/10/06 00:41:20;;;;;;;3.40;1.50;;;;;;;13.95;100.00;101321.50;10336855;28;20084;-71
2022/10/06 00:46:30;;;;;;;3.42;1.70;;;;;;;13.94;100.00;101349.22;10377065;28;20041;-72
2022/10/06 00:51:33;;;;;;;3.58;1.90;;;;;;;13.76;100.00;101340.47;10392701;28;20509;-72
2022/10/06 00:56:34;;;;;;;7.35;2.35;;;;;;;13.51;100.00;101316.41;10377513;28;20050;-73
2022/10/06 01:01:35;;;;;;;3.85;1.98;;;;;;;13.78;100.00;101394.56;10376545;28;20041;-72
2022/10/06 01:06:45;;;;;;;6.43;1.70;;;;;;;13.30;100.00;101329.38;10375859;28;20037;-70
2022/10/06 01:11:49;;;;;;;6.18;1.60;;;;;;;13.38;100.00;101380.09;10376504;28;20065;-72
2022/10/06 01:16:55;;;;;;;8.57;1.63;;;;;;;13.20;100.00;101343.66;10376039;28;20072;-72
2022/10/06 01:22:00;;;;;;;5.45;2.10;;;;;;;13.27;100.00;101364.38;10374366;28;20114;-72
2022/10/06 01:27:03;;;;;;;3.78;1.60;;;;;;;13.05;100.00;101328.41;10390936;28;20072;-72
2022/10/06 01:32:04;;;;;;;7.20;1.63;;;;;;;12.96;100.00;101319.53;10374825;28;20132;-71
2022/10/06 01:37:04;;;;;;;3.03;1.48;;;;;;;12.76;100.00;101278.94;10375507;28;20148;-71
2022/10/06 01:42:05;;;;;;;3.72;1.75;;;;;;;13.23;100.00;101359.34;10374046;28;20058;-71
2022/10/06 01:47:07;;;;;;;3.10;1.70;;;;;;;13.21;100.00;101369.31;10374464;28;20057;-71
2022/10/06 01:52:08;;;;;;;6.65;3.25;;;;;;;13.18;100.00;101374.16;10374663;28;20049;-71
2022/10/06 01:57:09;;;;;;;4.43;2.03;;;;;;;13.17;100.00;101364.47;10374067;28;20073;-71
2022/10/06 02:02:10;;;;;;;4.03;2.17;;;;;;;13.29;100.00;101367.72;10374972;28;20069;-71
2022/10/06 02:07:11;;;;;;;3.90;2.05;;;;;;;13.36;100.00;101368.75;10375112;28;20046;-72
2022/10/06 02:12:12;;;;;;;4.30;2.22;;;;;;;13.27;100.00;101385.72;10373165;28;20061;-72
2022/10/06 02:17:12;;;;;;;3.83;1.90;;;;;;;13.11;100.00;101357.94;10373714;28;20045;-72
2022/10/06 02:22:13;;;;;;;3.55;2.15;;;;;;;13.06;100.00;101346.91;10374295;28;20050;-72
2022/10/06 02:27:14;;;;;;;4.43;2.08;;;;;;;12.98;100.00;101334.38;10373394;28;20053;-71
2022/10/06 02:32:15;;;;;;;4.60;2.05;;;;;;;13.02;100.00;101334.91;10370809;28;20045;-71
2022/10/06 02:37:16;;;;;;;4.22;1.92;;;;;;;13.21;100.00;101363.97;10343084;28;20042;-72
2022/10/06 02:42:18;;;;;;;4.05;2.38;;;;;;;12.88;100.00;101311.50;10331363;28;20053;-72
2022/10/06 02:47:21;;;;;;;5.88;2.40;;;;;;;13.25;100.00;101383.19;10332462;28;20038;-71
2022/10/06 02:52:22;;;;;;;5.03;2.30;;;;;;;13.18;100.00;101350.13;10331359;28;20073;-71
2022/10/06 02:57:23;;;;;;;5.63;2.65;;;;;;;13.17;100.00;101365.31;10331922;28;20450;-71
2022/10/06 03:02:23;;;;;;;5.13;2.55;;;;;;;13.27;100.00;101375.88;10331867;28;20329;-71
2022/10/06 03:07:24;;;;;;;5.68;3.00;;;;;;;13.23;100.00;101382.50;10336782;28;20047;-73
2022/10/06 03:12:27;;;;;;;9.90;2.60;;;;;;;13.16;100.00;101346.78;10353922;28;20058;-72
2022/10/06 03:17:28;;;;;;;7.65;2.60;;;;;;;12.70;100.00;101322.22;10333210;28;20461;-71
2022/10/06 03:22:28;;;;;;;2.72;1.30;;;;;;;12.56;100.00;101302.31;10367709;28;20037;-72
2022/10/06 03:27:29;;;;;;;4.88;1.42;;;;;;;13.09;100.00;101410.63;10371469;28;20073;-72
2022/10/06 03:32:30;;;;;;;4.85;1.52;;;;;;;13.09;100.00;101412.44;10370997;28;20117;-72
2022/10/06 03:37:31;;;;;;;8.43;1.10;;;;;;;12.60;100.00;101341.00;10371234;28;20092;-72
2022/10/06 03:42:31;;;;;;;18.00;2.33;;;;;;;12.81;100.00;101377.13;10371131;28;20130;-71
2022/10/06 03:47:32;;;;;;;7.28;1.20;;;;;;;12.66;100.00;101377.69;10353653;28;20564;-72
2022/10/06 03:52:33;;;;;;;15.32;2.10;;;;;;;12.61;100.00;101384.47;10370895;28;20114;-69
2022/10/06 03:57:34;;;;;;;4.95;1.15;;;;;;;12.69;100.00;101425.38;10370900;28;20108;-71
2022/10/06 04:02:34;;;;;;;4.82;1.35;;;;;;;12.70;100.00;101421.69;10373971;28;20434;-72
2022/10/06 04:07:36;;;;;;;12.82;1.70;;;;;;;12.71;100.00;101439.38;10378812;28;20069;-70
2022/10/06 04:12:36;;;;;;;4.80;1.48;;;;;;;11.80;100.00;101284.25;10378666;28;20157;-69
2022/10/06 04:17:37;;;;;;;4.95;1.50;;;;;;;12.79;100.00;101447.44;10376954;28;20129;-71
2022/10/06 04:22:38;;;;;;;5.68;1.65;;;;;;;12.83;100.00;101457.78;10378017;28;20490;-71
2022/10/06 04:27:39;;;;;;;5.75;2.00;;;;;;;12.82;100.00;101466.78;10377195;28;20529;-74
2022/10/06 04:32:40;;;;;;;12.18;2.10;;;;;;;12.88;100.00;101476.81;10377791;28;20054;-71
2022/10/06 04:37:40;;;;;;;16.95;2.58;;;;;;;12.89;100.00;101476.69;10378084;28;20375;-72
2022/10/06 04:42:41;;;;;;;7.43;2.45;;;;;;;12.48;100.00;101400.88;10376014;28;20046;-72
2022/10/06 04:47:42;;;;;;;12.05;2.47;;;;;;;12.46;100.00;101408.19;10370842;28;20034;-71
2022/10/06 04:52:43;;;;;;;5.80;2.38;;;;;;;12.94;100.00;101482.38;10306941;28;20077;-71
2022/10/06 04:57:44;;;;;;;13.25;2.55;;;;;;;12.86;100.00;101454.81;10295313;28;20130;-71
2022/10/06 05:02:45;;;;;;;19.83;3.15;;;;;;;13.01;100.00;101467.44;10293206;28;20074;-70
2022/10/06 05:07:46;;;;;;;10.07;3.10;;;;;;;12.80;100.00;101424.25;10295650;28;20073;-71
2022/10/06 05:12:46;;;;;;;10.25;2.97;;;;;;;13.01;100.00;101466.56;10295473;28;20057;-71
2022/10/06 05:17:47;;;;;;;9.38;2.72;;;;;;;12.99;100.00;101490.75;10295614;28;20411;-70
2022/10/06 05:22:48;;;;;;;5.88;2.40;;;;;;;12.92;100.00;101494.19;10295793;28;20038;-69
2022/10/06 05:27:49;;;;;;;5.30;2.47;;;;;;;12.76;100.00;101469.06;10294370;28;20034;-69
2022/10/06 05:32:51;;;;;;;10.35;2.80;;;;;;;12.70;100.00;101445.69;10294271;28;20070;-70
2022/10/06 05:37:53;;;;;;;6.28;2.65;;;;;;;13.06;100.00;101476.78;10294002;28;20041;-70
2022/10/06 05:42:54;;;;;;;4.25;2.47;;;;;;;13.05;100.00;101481.28;10294928;28;20092;-70
2022/10/06 05:47:55;;;;;;;6.45;2.22;;;;;;;13.03;100.00;101468.09;10294170;28;20150;-70
2022/10/06 05:52:56;;;;;;;4.30;2.28;;;;;;;12.65;100.00;101405.31;10293480;28;20126;-70
2022/10/06 05:57:57;;;;;;;4.68;2.30;;;;;;;13.11;100.00;101472.66;10293374;28;20051;-71
2022/10/06 06:02:58;;;;;;;6.55;2.08;;;;;;;13.13;100.00;101488.50;10293757;28;20042;-69
2022/10/06 06:07:58;;;;;;;4.88;2.20;;;;;;;13.17;100.00;101482.69;10292661;28;20051;-70
2022/10/06 06:12:59;;;;;;;4.43;2.25;;;;;;;13.36;100.00;101464.81;10293297;28;20059;-70
2022/10/06 06:18:00;;;;;;;16.40;2.55;;;;;;;13.53;100.00;101465.75;10292497;28;20185;-70
2022/10/06 06:23:01;;;;;;;4.07;2.08;;;;;;;13.69;100.00;101481.84;10293166;28;20062;-70
2022/10/06 06:28:02;;;;;;;3.17;1.50;;;;;;;13.64;100.00;101462.78;10292007;28;20042;-71
2022/10/06 06:33:02;;;;;;;6.85;2.13;;;;;;;13.78;100.00;101477.38;10292024;28;20062;-70
2022/10/06 06:38:10;;;;;;;4.93;1.90;;;;;;;12.94;100.00;101332.19;10292966;28;20503;-70
2022/10/06 06:43:11;;;;;;;6.00;1.80;;;;;;;13.77;100.00;101468.53;10291741;28;20038;-70
2022/10/06 06:48:15;;;;;;;3.13;1.90;;;;;;;13.84;100.00;101477.53;10292405;28;20067;-70
2022/10/06 06:53:16;;;;;;;3.05;1.40;;;;;;;13.41;100.00;101387.78;10291424;28;20503;-70
2022/10/06 06:58:19;;;;;;;2.58;1.30;;;;;;;13.65;100.00;101395.06;10291799;28;20125;-70
2022/10/06 07:03:21;;;;;;;3.95;1.60;;;;;;;13.81;100.00;101378.22;10291896;28;20035;-70
2022/10/06 07:08:23;;;;;;;5.10;1.85;;;;;;;14.51;100.00;101449.97;10291240;28;20055;-70
2022/10/06 07:13:23;;;;;;;3.42;1.52;;;;;;;14.61;100.00;101440.78;10291328;28;20045;-70
2022/10/06 07:29:06;;;;;;;3.55;1.25;;;;;;;15.22;100.00;101440.38;10290556;28;20047;-70
2022/10/06 07:34:07;;;;;;;3.90;1.13;;;;;;;14.97;100.00;101367.34;10291204;28;20051;-70
2022/10/06 07:39:09;;;;;;;3.38;1.30;;;;;;;15.44;100.00;101434.28;10298108;28;20082;-70
2022/10/06 07:44:10;;;;;;;4.07;1.30;;;;;;;15.56;100.00;101420.50;10298342;28;20047;-70
2022/10/06 07:49:10;;;;;;;2.65;1.27;;;;;;;15.58;100.00;101432.69;10298427;28;20047;-70
2022/10/06 07:54:11;;;;;;;5.82;1.52;;;;;;;15.58;100.00;101432.69;10298545;28;20561;-70
2022/10/06 07:59:12;;;;;;;2.15;1.05;;;;;;;15.06;100.00;101355.63;10298752;28;20062;-71
2022/10/06 08:04:13;;;;;;;3.17;1.20;;;;;;;14.96;100.00;101355.81;10298348;28;20069;-71
2022/10/06 08:09:14;;;;;;;5.28;1.65;;;;;;;15.32;100.00;101419.59;10297422;28;20066;-71
2022/10/06 08:14:15;;;;;;;3.33;1.40;;;;;;;14.77;100.00;101332.13;10297143;28;20055;-71
2022/10/06 08:19:18;;;;;;;10.13;1.70;;;;;;;15.36;100.00;101412.88;10297489;28;20038;-71
2022/10/06 08:24:19;;;;;;;4.85;1.42;;;;;;;15.40;100.00;101418.72;10296751;28;20046;-71
2022/10/06 08:29:21;;;;;;;1.83;1.08;;;;;;;15.36;100.00;101412.06;10298023;28;20062;-71
2022/10/06 08:34:22;;;;;;;1.73;1.17;;;;;;;15.20;100.00;101388.88;10297094;28;20069;-71
2022/10/06 08:39:23;;;;;;;2.30;1.25;;;;;;;15.47;100.00;101417.88;10296341;28;20042;-71
2022/10/06 08:44:37;;;;;;;2.63;1.30;;;;;;;15.18;100.00;101364.09;10296072;28;20054;-71
2022/10/06 08:49:44;;;;;;;1.88;1.10;;;;;;;15.55;100.00;101402.75;10295279;28;20070;-71
2022/10/06 08:54:51;;;;;;;2.50;0.98;;;;;;;15.70;100.00;101409.94;10296498;28;20078;-71
2022/10/06 08:59:52;;;;;;;4.72;1.20;;;;;;;15.72;100.00;101391.81;10296375;28;20047;-71
2022/10/06 09:04:55;;;;;;;5.15;1.33;;;;;;;15.77;100.00;101379.75;10295944;28;20566;-71
2022/10/06 09:10:15;;;;;;;1.88;0.65;;;;;;;15.47;100.00;101328.66;10295791;28;20069;-72
2022/10/06 09:15:39;;;;;;;1.90;0.90;;;;;;;15.81;100.00;101389.94;10294888;28;20038;-72
2022/10/06 09:20:45;;;;;;;2.13;0.95;;;;;;;15.39;100.00;101332.22;10295287;28;20046;-72
2022/10/06 09:25:46;;;;;;;11.10;1.30;;;;;;;15.90;100.00;101394.22;10294615;28;20043;-71
2022/10/06 09:30:47;;;;;;;2.33;1.20;;;;;;;15.68;100.00;101357.53;10294905;28;20418;-71
2022/10/06 09:36:07;;;;;;;3.90;1.30;;;;;;;15.86;100.00;101387.56;10294731;28;20435;-72
2022/10/06 09:41:12;;;;;;;4.10;0.93;;;;;;;15.88;100.00;101390.88;10294052;28;20047;-72
2022/10/06 09:46:27;;;;;;;2.95;1.35;;;;;;;15.46;97.32;101333.16;10293930;28;20391;-70
2022/10/06 09:51:32;;;;;;;3.25;0.88;;;;;;;15.22;99.09;101310.03;10292533;28;20042;-70
2022/10/06 09:56:35;;;;;;;1.55;0.70;;;;;;;15.68;97.76;101387.00;10294390;28;20053;-71
2022/10/06 10:01:35;;;;;;;2.17;1.00;;;;;;;15.67;97.22;101388.81;10292217;28;20046;-71
2022/10/06 10:06:36;;;;;;;1.92;1.00;;;;;;;15.60;97.69;101381.66;10293618;28;20039;-72
2022/10/06 10:16:56;;;;;;;6.97;1.30;;;;;;;15.63;98.32;101392.84;10292715;28;20082;-69
2022/10/06 10:21:58;;;;;;;2.67;1.30;;;;;;;15.27;97.78;101296.97;10293204;28;20062;-72
2022/10/06 10:27:15;;;;;;;5.78;1.52;;;;;;;15.93;98.19;101369.75;10293416;28;20127;-72
2022/10/06 10:32:23;;;;;;;2.95;1.20;;;;;;;15.49;96.57;101289.97;10292093;28;20561;-70
2022/10/06 10:37:51;;;;;;;2.00;1.10;;;;;;;16.17;97.41;101374.09;10291914;28;20046;-70
2022/10/06 10:43:28;;;;;;;9.90;1.70;;;;;;;16.27;97.02;101373.00;10292869;28;20509;-70
2022/10/06 10:48:47;;;;;;;6.53;1.80;;;;;;;16.07;95.84;101344.03;10292295;28;20394;-70
2022/10/06 10:53:59;;;;;;;6.95;1.70;;;;;;;16.30;95.64;101376.16;10292136;28;20051;-70
2022/10/06 10:59:26;;;;;;;7.85;1.98;;;;;;;16.34;92.02;101358.72;10291864;28;20046;-69
2022/10/06 11:04:27;;;;;;;2.97;1.70;;;;;;;16.21;94.89;101347.75;10291223;28;20038;-72
2022/10/06 11:09:46;;;;;;;2.47;1.35;;;;;;;16.29;92.77;101366.47;10291884;28;20507;-70
2022/10/06 11:15:00;;;;;;;3.55;1.75;;;;;;;16.22;93.20;101373.56;10291659;28;20495;-70
2022/10/06 11:20:35;;;;;;;4.82;1.67;;;;;;;16.18;92.65;101356.16;10291048;28;20070;-70
2022/10/06 11:25:59;;;;;;;8.63;2.15;;;;;;;16.19;94.15;101360.53;10291401;28;20100;-69
2022/10/06 11:31:07;;;;;;;;;;;;;;;16.38;94.35;101369.91;10290694;28;20051;-70
2022/10/06 11:36:17;;;;;;;5.15;2.35;;;;;;;16.10;96.30;101346.34;10291244;28;19924;-70
2022/10/06 11:41:30;;;;;;;5.07;1.90;;;;;;;16.05;93.13;101355.94;10290593;28;20039;-71
2022/10/06 11:46:37;;;;;;;7.07;2.37;;;;;;;16.24;96.63;101376.06;10291072;28;20177;-70
2022/10/06 11:51:38;;;;;;;4.30;2.17;;;;;;;16.24;96.95;101384.09;10290405;28;20066;-69
2022/10/06 11:56:39;;;;;;;7.60;2.15;;;;;;;15.73;96.53;101301.56;10290749;28;20126;-69
2022/10/06 12:01:42;;;;;;;4.05;2.03;;;;;;;15.33;96.03;101241.06;10290697;28;20043;-69
2022/10/06 12:06:46;;;;;;;3.05;2.10;;;;;;;16.22;96.39;101372.75;10290702;28;20071;-69
2022/10/06 12:11:49;;;;;;;4.05;2.70;;;;;;;16.06;96.83;101338.84;10290821;28;20173;-69
2022/10/06 12:16:58;;;;;;;5.05;2.60;;;;;;;16.23;97.82;101366.34;10289945;28;20042;-70
2022/10/06 12:22:16;;;;;;;4.78;2.38;;;;;;;16.18;97.35;101348.13;10290960;28;20038;-70
2022/10/06 12:27:25;;;;;;;3.70;1.70;;;;;;;16.30;95.53;101378.00;10305990;28;20070;-70
2022/10/06 12:32:41;;;;;;;4.93;1.80;;;;;;;16.46;94.97;101366.34;10309528;28;20050;-70
2022/10/06 12:37:52;;;;;;;2.97;1.58;;;;;;;16.40;94.86;101357.16;10296643;28;20067;-71
2022/10/06 12:43:17;;;;;;;5.93;1.73;;;;;;;16.44;95.21;101364.66;10296653;28;20070;-72
2022/10/06 12:48:25;;;;;;;4.63;1.90;;;;;;;16.36;94.28;101370.09;10296368;28;20495;-71
2022/10/06 12:53:33;;;;;;;12.60;2.53;;;;;;;16.41;95.71;101391.81;10296450;28;20514;-71
2022/10/06 12:58:34;;;;;;;2.45;1.63;;;;;;;16.40;95.25;101376.75;10295727;28;20501;-71
2022/10/06 13:03:36;;;;;;;3.72;1.90;;;;;;;16.28;94.94;101380.88;10311442;28;20038;-71
2022/10/06 13:08:38;;;;;;;6.13;2.67;;;;;;;16.24;95.73;101390.28;10307868;28;20051;-71
2022/10/06 13:13:54;;;;;;;8.00;3.25;;;;;;;15.85;99.20;101315.38;10323622;28;20053;-70
2022/10/06 13:18:57;;;;;;;5.82;2.90;;;;;;;15.83;95.75;101345.03;10320619;28;20062;-71
2022/10/06 13:23:58;;;;;;;6.10;2.90;;;;;;;16.06;95.39;101385.22;10296042;28;20510;-71
2022/10/06 13:28:59;;;;;;;5.95;3.15;;;;;;;15.66;95.45;101322.03;10313733;28;20078;-70
2022/10/06 13:34:04;;;;;;;4.40;3.10;;;;;;;15.97;96.06;101381.78;10323901;28;20188;-70
2022/10/06 13:39:15;;;;;;;10.20;2.85;;;;;;;15.63;96.27;101333.09;10344800;28;20505;-71
2022/10/06 13:44:18;;;;;;;4.68;2.60;;;;;;;16.00;96.77;101406.56;10318880;28;20458;-71
2022/10/06 13:49:30;;;;;;;8.18;2.30;;;;;;;15.99;97.61;101403.03;10294766;28;20560;-71
2022/10/06 13:54:49;;;;;;;4.35;2.20;;;;;;;15.77;99.69;101371.72;10294461;28;20047;-71
2022/10/06 14:00:20;;;;;;;4.32;2.10;;;;;;;15.57;99.53;101339.97;10292769;28;20062;-71
2022/10/06 14:05:35;;;;;;;7.47;2.70;;;;;;;15.71;98.18;101381.28;10293113;28;20054;-72
2022/10/06 14:10:50;;;;;;;5.82;2.47;;;;;;;15.82;98.56;101406.84;10293145;28;20059;-71
2022/10/06 14:16:03;;;;;;;5.28;2.80;;;;;;;15.69;99.19;101418.97;10293360;28;20042;-71
2022/10/06 14:21:30;;;;;;;5.33;2.63;;;;;;;15.65;100.00;101409.59;10293114;28;20655;-71
2022/10/06 14:26:36;;;;;;;8.93;2.70;;;;;;;15.53;100.00;101411.81;10293025;28;20042;-71
2022/10/06 14:31:37;;;;;;;6.53;2.63;;;;;;;15.46;100.00;101418.03;10292744;28;20046;-71
2022/10/06 14:36:37;;;;;;;4.03;2.42;;;;;;;15.37;100.00;101411.88;10292520;28;20039;-70
2022/10/06 14:41:38;;;;;;;5.15;2.78;;;;;;;15.26;100.00;101404.22;10292163;28;20074;-70
2022/10/06 14:46:40;;;;;;;6.05;3.35;;;;;;;15.37;100.00;101430.59;10291925;28;20398;-70
2022/10/06 14:51:43;;;;;;;6.40;3.28;;;;;;;15.33;100.00;101434.66;10291405;28;20051;-74
2022/10/06 14:56:45;;;;;;;8.93;2.90;;;;;;;15.33;100.00;101437.31;10291545;28;20046;-71
2022/10/06 15:01:48;;;;;;;5.53;2.88;;;;;;;15.29;100.00;101433.34;10317760;28;20042;-71
2022/10/06 15:12:08;;;;;;;4.60;2.55;;;;;;;15.23;100.00;101434.84;10339125;28;20109;-72
2022/10/06 15:17:09;;;;;;;6.60;2.75;;;;;;;15.24;100.00;101443.72;10338191;28;20112;-70
2022/10/06 15:22:10;;;;;;;7.13;2.67;;;;;;;15.19;100.00;101440.72;10348115;28;20033;-70
2022/10/06 15:32:30;;;;;;;4.72;2.83;;;;;;;14.85;100.00;101401.66;10331405;28;20129;-70
2022/10/06 15:37:30;;;;;;;9.05;3.08;;;;;;;14.98;100.00;101430.56;10330655;28;20149;-70
2022/10/06 15:42:31;;;;;;;4.38;2.63;;;;;;;14.67;100.00;101377.78;10331198;28;20125;-70
2022/10/06 15:47:33;;;;;;;3.05;2.20;;;;;;;15.16;100.00;101455.25;10334929;28;20038;-71
2022/10/06 15:52:34;;;;;;;4.10;2.50;;;;;;;15.12;100.00;101463.81;10344405;28;20069;-70
2022/10/06 15:57:35;;;;;;;4.63;2.50;;;;;;;15.10;100.00;101455.94;10330630;28;20101;-70
2022/10/06 16:02:36;;;;;;;3.60;2.10;;;;;;;15.10;100.00;101461.31;10316657;28;20035;-71
2022/10/06 16:07:37;;;;;;;4.50;2.05;;;;;;;15.08;100.00;101466.00;10356955;28;20034;-71
2022/10/06 16:12:38;;;;;;;4.53;2.30;;;;;;;14.59;100.00;101378.63;10349178;28;20034;-71
2022/10/06 16:17:38;;;;;;;6.80;2.20;;;;;;;14.94;100.00;101443.44;10356636;28;20035;-72
2022/10/06 16:22:39;;;;;;;5.93;2.03;;;;;;;15.06;100.00;101462.66;10347722;28;20113;-72
2022/10/06 16:27:40;;;;;;;4.78;1.65;;;;;;;14.56;100.00;101376.28;10318433;28;20050;-72
2022/10/06 16:32:41;;;;;;;6.53;1.90;;;;;;;14.60;100.00;101399.03;10339293;28;20422;-72
2022/10/06 16:37:47;;;;;;;4.45;1.80;;;;;;;15.01;100.00;101468.50;10343373;28;20042;-73
2022/10/06 16:42:50;;;;;;;10.05;2.10;;;;;;;14.85;100.00;101447.13;10339752;28;20046;-73
2022/10/06 16:47:52;;;;;;;4.65;1.67;;;;;;;14.98;100.00;101473.38;10335728;28;20035;-73
2022/10/06 16:52:53;;;;;;;2.63;1.70;;;;;;;14.87;100.00;101463.00;10329923;28;20129;-72
2022/10/06 16:57:53;;;;;;;3.55;1.67;;;;;;;14.98;100.00;101478.72;10328857;28;20053;-72
2022/10/06 17:02:54;;;;;;;3.00;1.50;;;;;;;14.87;100.00;101468.34;10329624;28;20092;-72
2022/10/06 17:07:55;;;;;;;5.15;2.00;;;;;;;14.61;100.00;101430.09;10329409;28;20046;-72
2022/10/06 17:12:56;;;;;;;3.17;1.70;;;;;;;14.75;100.00;101450.00;10334002;28;20042;-72
2022/10/06 17:17:57;;;;;;;5.65;2.00;;;;;;;14.36;100.00;101394.50;10357055;28;20399;-72
2022/10/06 17:22:59;;;;;;;3.05;1.73;;;;;;;14.81;100.00;101470.72;10359738;28;20125;-72
2022/10/06 17:27:59;;;;;;;10.45;2.03;;;;;;;14.57;100.00;101439.47;10358369;28;20096;-72
2022/10/06 17:33:00;;;;;;;5.40;1.77;;;;;;;14.39;100.00;101431.56;10325711;28;20060;-74
2022/10/06 17:38:03;;;;;;;5.13;2.00;;;;;;;14.37;100.00;101456.81;10335388;28;20380;-72
2022/10/06 17:43:04;;;;;;;7.03;1.90;;;;;;;13.66;100.00;101365.50;10349456;28;20050;-72
2022/10/06 17:48:05;;;;;;;4.32;1.90;;;;;;;14.29;100.00;101472.81;10325328;28;20526;-72
2022/10/06 17:53:06;;;;;;;10.00;2.28;;;;;;;14.18;100.00;101474.00;10316623;28;20073;-72
2022/10/06 17:58:07;;;;;;;6.55;2.20;;;;;;;14.01;100.00;101472.28;10333451;28;20042;-72
2022/10/06 18:03:08;;;;;;;4.90;2.40;;;;;;;13.94;100.00;101469.41;10332830;28;20034;-72
2022/10/06 18:08:11;;;;;;;11.68;2.80;;;;;;;13.79;100.00;101466.53;10331784;28;20089;-72
2022/10/06 18:13:13;;;;;;;5.57;2.50;;;;;;;13.50;100.00;101429.53;10332205;28;20073;-72
2022/10/06 18:18:14;;;;;;;5.97;2.45;;;;;;;13.40;100.00;101436.81;10333089;28;20141;-72
2022/10/06 18:23:15;;;;;;;8.93;2.65;;;;;;;13.51;100.00;101473.06;10332291;28;20042;-74
2022/10/06 18:28:16;;;;;;;6.25;2.40;;;;;;;12.75;100.00;101362.59;10322532;28;20122;-72
2022/10/06 18:33:17;;;;;;;4.18;2.60;;;;;;;13.16;100.00;101449.03;10289001;28;20047;-73
2022/10/06 18:38:17;;;;;;;4.70;3.00;;;;;;;12.72;100.00;101392.22;10289233;28;20070;-74
2022/10/06 18:43:18;;;;;;;5.93;2.90;;;;;;;13.11;100.00;101462.00;10296771;28;20047;-72
2022/10/06 18:53:38;;;;;;;13.10;2.90;;;;;;;12.85;100.00;101463.81;10288450;28;20046;-72
2022/10/06 18:58:40;;;;;;;6.95;3.47;;;;;;;12.32;100.00;101389.09;10288364;28;20042;-72
2022/10/06 19:03:40;;;;;;;13.25;4.60;;;;;;;12.59;100.00;101451.25;10288311;28;20045;-74
2022/10/06 19:08:41;;;;;;;17.52;3.42;;;;;;;12.62;100.00;101474.94;10287584;28;20142;-72
2022/10/06 19:13:47;;;;;;;15.27;3.63;;;;;;;12.61;100.00;101472.44;10286221;28;20414;-72
2022/10/06 19:18:48;;;;;;;21.90;4.10;;;;;;;12.52;100.00;101461.72;10286321;28;20053;-72
2022/10/06 19:23:49;;;;;;;8.00;3.58;;;;;;;12.47;100.00;101457.81;10287411;28;20049;-73
2022/10/06 19:28:50;;;;;;;6.32;3.60;;;;;;;12.05;100.00;101375.84;10287514;28;20046;-72
2022/10/06 19:33:51;;;;;;;10.40;4.22;;;;;;;12.70;100.00;101455.53;10292200;28;20043;-72
2022/10/06 19:38:54;;;;;;;14.48;3.58;;;;;;;12.45;100.00;101412.69;10295665;28;20129;-72
2022/10/06 19:43:56;;;;;;;10.55;5.40;;;;;;;12.73;100.00;101457.88;10296403;28;20121;-73
2022/10/06 19:48:57;;;;;;;14.40;6.40;;;;;;;12.58;100.00;101438.94;10293590;28;20422;-72
2022/10/06 19:53:59;;;;;;;18.55;6.57;;;;;;;12.65;100.00;101442.66;10295296;28;20053;-72
2022/10/06 19:59:01;;;;;;;12.13;5.57;;;;;;;12.73;100.00;101444.56;10294855;28;20031;-72
2022/10/06 20:04:02;;;;;;;13.10;6.30;;;;;;;12.53;100.00;101401.22;10295140;28;20039;-72
2022/10/06 20:09:07;;;;;;;9.90;5.78;;;;;;;12.74;100.00;101428.41;10305720;28;20062;-72
2022/10/06 20:14:14;;;;;;;9.57;5.88;;;;;;;12.45;100.00;101382.53;10294399;28;20058;-72
2022/10/06 20:19:17;;;;;;;10.23;5.30;;;;;;;12.83;100.00;101437.28;10293335;28;20039;-72
2022/10/06 20:24:23;;;;;;;12.32;5.20;;;;;;;12.34;100.00;101360.47;10294654;28;20077;-72
2022/10/06 20:29:27;;;;;;;12.77;5.22;;;;;;;12.73;100.00;101433.88;10295451;28;20043;-72
2022/10/06 20:34:31;;;;;;;10.07;4.60;;;;;;;12.50;100.00;101423.72;10297407;28;20031;-72
2022/10/06 20:44:52;;;;;;;13.23;6.43;;;;;;;12.46;100.00;101440.16;10295473;28;20078;-72
2022/10/06 20:49:53;;;;;;;10.95;6.13;;;;;;;12.38;100.00;101426.75;10296572;28;20074;-72
2022/10/06 20:54:55;;;;;;;13.20;5.53;;;;;;;12.39;100.00;101441.78;10307129;28;20054;-72
2022/10/06 20:59:55;;;;;;;16.67;5.85;;;;;;;12.29;100.00;101441.84;10296110;28;20042;-72
2022/10/06 21:04:56;;;;;;;10.75;5.50;;;;;;;12.21;100.00;101447.94;10297010;28;20038;-72
2022/10/06 21:09:57;;;;;;;13.93;5.05;;;;;;;12.15;100.00;101443.22;10295161;28;20054;-72
2022/10/06 21:14:58;;;;;;;10.88;5.55;;;;;;;11.80;100.00;101404.88;10295767;28;20380;-72
2022/10/06 21:19:58;;;;;;;11.27;4.75;;;;;;;11.94;100.00;101453.31;10295935;28;20510;-72
2022/10/06 21:24:59;;;;;;;8.07;5.05;;;;;;;11.84;100.00;101440.84;10295793;28;20522;-72
2022/10/06 21:30:00;;;;;;;10.20;4.82;;;;;;;11.84;100.00;101445.34;10294795;28;20410;-72
2022/10/06 21:35:01;;;;;;;11.52;5.63;;;;;;;11.58;100.00;101421.28;10294430;28;20034;-72
2022/10/06 21:40:02;;;;;;;13.13;5.05;;;;;;;11.54;100.00;101435.84;10295073;28;20042;-72
2022/10/06 21:45:02;;;;;;;11.10;5.25;;;;;;;11.63;100.00;101462.41;10295149;28;20042;-72
2022/10/06 21:50:03;;;;;;;9.50;4.97;;;;;;;11.43;100.00;101443.03;10293461;28;20039;-72
2022/10/06 21:55:05;;;;;;;14.90;5.72;;;;;;;11.36;100.00;101436.59;10294140;28;20039;-72
2022/10/06 22:00:09;;;;;;;9.50;5.03;;;;;;;10.95;100.00;101390.88;10293556;28;20057;-72
2022/10/06 22:05:10;;;;;;;16.15;5.05;;;;;;;11.36;100.00;101463.22;10293893;28;20386;-72
2022/10/06 22:10:11;;;;;;;10.07;5.35;;;;;;;11.29;100.00;101461.28;10293381;28;20149;-72
2022/10/06 22:15:12;;;;;;;15.20;4.97;;;;;;;10.82;100.00;101376.22;10292883;28;20050;-72
2022/10/06 22:20:13;;;;;;;12.13;4.82;;;;;;;11.02;100.00;101432.81;10293248;28;20443;-72
2022/10/06 22:25:14;;;;;;;6.57;4.40;;;;;;;11.08;100.00;101446.38;10292276;28;20042;-73
2022/10/06 22:30:15;;;;;;;9.40;4.80;;;;;;;11.07;100.00;101454.47;10292862;28;20042;-72
2022/10/06 22:35:15;;;;;;;13.68;4.45;;;;;;;11.00;100.00;101446.25;10291522;28;20522;-72
2022/10/06 22:40:16;;;;;;;9.43;5.05;;;;;;;10.86;100.00;101434.28;10291304;28;20058;-72
2022/10/06 22:45:17;;;;;;;15.80;6.45;;;;;;;10.88;100.00;101447.41;10292448;28;20043;-72
2022/10/06 22:50:18;;;;;;;23.77;9.63;;;;;;;10.88;100.00;101458.03;10292124;28;20125;-72
2022/10/06 22:55:19;;;;;;;23.88;9.48;;;;;;;10.58;100.00;101412.06;10302697;28;20046;-72
2022/10/06 23:00:19;;;;;;;16.42;7.35;;;;;;;10.81;100.00;101449.78;10291081;28;20043;-72
2022/10/06 23:05:20;;;;;;;10.68;6.43;;;;;;;10.77;100.00;101451.06;10289954;28;20050;-72
2022/10/06 23:10:21;;;;;;;12.25;5.22;;;;;;;10.57;100.00;101431.66;10291574;28;20070;-72
2022/10/06 23:15:23;;;;;;;11.05;4.82;;;;;;;10.62;100.00;101447.16;10291733;28;20129;-72
2022/10/06 23:20:24;;;;;;;12.07;6.25;;;;;;;10.61;100.00;101448.13;10291618;28;20130;-72
2022/10/06 23:25:25;;;;;;;11.85;6.45;;;;;;;10.57;100.00;101450.25;10289649;28;20134;-72
2022/10/06 23:30:26;;;;;;;11.82;6.95;;;;;;;10.61;100.00;101451.63;10311178;28;20073;-72
2022/10/06 23:35:27;;;;;;;35.15;9.23;;;;;;;10.61;100.00;101445.47;10332681;28;20048;-72